Time;durP1;ratioP1;P1;durP2;ratioP2;P2;SDS_P1;SDS_P2;PMS_P1;PMS_P2;Temp;Humidity;BMP_temperature;BMP_pressure;BME280_temperature;BME280_humidity;BME280_pressure;Samples;Min_cycle;Max_cycle;Signal;HPM_P1;HPM_P2
2021/05/17 00:00:35;;;;;;;8.85;4.25;;;;;;;8.16;86.60;95189.97;4814673;29;20056;-91
2021/05/17 00:03:02;;;;;;;5.22;4.50;;;;;;;8.52;87.18;95221.25;4814936;29;20046;-92
2021/05/17 00:05:30;;;;;;;7.32;4.70;;;;;;;8.30;86.53;95197.28;4814795;29;20030;-91
2021/05/17 00:07:56;;;;;;;5.78;4.97;;;;;;;8.14;87.61;95196.56;4814970;29;20074;-91
2021/05/17 00:10:22;;;;;;;10.27;5.28;;;;;;;8.34;87.40;95222.19;4830675;29;20066;-91
2021/05/17 00:12:48;;;;;;;9.40;5.20;;;;;;;8.07;88.03;95169.19;4814698;29;20054;-92
2021/05/17 00:15:16;;;;;;;6.93;5.25;;;;;;;8.40;87.22;95204.84;4814590;29;20065;-91
2021/05/17 00:17:42;;;;;;;8.07;4.65;;;;;;;8.37;86.15;95211.22;4814536;29;20095;-91
2021/05/17 00:20:10;;;;;;;8.00;5.15;;;;;;;7.80;87.37;95132.38;4830653;29;20366;-91
2021/05/17 00:22:36;;;;;;;8.00;5.18;;;;;;;8.12;87.38;95192.84;4814561;29;20037;-91
2021/05/17 00:25:03;;;;;;;7.18;5.10;;;;;;;7.84;87.72;95157.28;4814498;29;20030;-91
2021/05/17 00:27:28;;;;;;;6.35;4.95;;;;;;;8.09;87.74;95172.16;4814533;29;20501;-92
2021/05/17 00:29:54;;;;;;;8.27;5.40;;;;;;;8.07;87.19;95174.59;4814457;29;20026;-91
2021/05/17 00:32:20;;;;;;;7.95;4.97;;;;;;;8.23;87.32;95195.72;4830408;29;20022;-91
2021/05/17 00:34:46;;;;;;;6.03;4.72;;;;;;;7.86;87.08;95152.13;4813333;29;20033;-91
2021/05/17 00:37:15;;;;;;;6.78;4.70;;;;;;;7.57;87.56;95110.44;4814356;29;20041;-91
2021/05/17 00:39:42;;;;;;;7.55;4.35;;;;;;;8.06;87.47;95189.31;4814307;29;20041;-91
2021/05/17 00:42:09;;;;;;;6.13;4.40;;;;;;;7.97;87.48;95156.97;4814045;29;20371;-91
2021/05/17 00:44:38;;;;;;;8.35;4.88;;;;;;;8.11;88.35;95180.56;4814208;29;20037;-91
2021/05/17 00:47:13;;;;;;;5.17;4.60;;;;;;;7.62;86.46;95136.06;4814180;29;20424;-91
2021/05/17 00:49:40;;;;;;;6.35;4.50;;;;;;;7.83;86.76;95163.91;4814195;29;20050;-91
2021/05/17 00:52:07;;;;;;;6.28;4.38;;;;;;;7.90;88.80;95163.53;4814086;29;20332;-92
2021/05/17 00:54:32;;;;;;;5.78;4.00;;;;;;;7.73;87.82;95116.56;4830074;29;20034;-91
2021/05/17 00:56:58;;;;;;;6.30;4.75;;;;;;;7.80;86.75;95157.47;4830138;29;20362;-91
2021/05/17 00:59:24;;;;;;;5.45;3.88;;;;;;;7.70;87.64;95133.69;4813906;29;20034;-91
2021/05/17 01:01:50;;;;;;;5.43;4.50;;;;;;;7.67;87.54;95121.88;4829941;29;20109;-91
2021/05/17 01:04:16;;;;;;;7.05;5.15;;;;;;;7.72;88.13;95133.97;4829774;29;20034;-91
2021/05/17 01:06:46;;;;;;;5.40;4.82;;;;;;;7.60;86.55;95130.34;4813913;29;20305;-91
2021/05/17 01:09:13;;;;;;;5.90;4.50;;;;;;;7.11;87.21;95060.78;4813811;29;20035;-90
2021/05/17 01:11:39;;;;;;;6.72;4.63;;;;;;;7.28;87.92;95069.91;4813725;29;20030;-91
2021/05/17 01:14:06;;;;;;;8.02;4.15;;;;;;;7.85;87.38;95154.09;4813762;29;20022;-90
2021/05/17 01:16:32;;;;;;;9.57;4.57;;;;;;;7.71;87.31;95148.69;4813606;29;20026;-91
2021/05/17 01:18:58;;;;;;;5.93;5.20;;;;;;;7.61;88.62;95131.84;4813589;29;20030;-90
2021/05/17 01:21:29;;;;;;;18.48;6.70;;;;;;;7.76;89.66;95151.50;4813598;29;20064;-90
2021/05/17 01:23:55;;;;;;;7.95;6.10;;;;;;;7.42;89.52;95079.97;4829585;29;20104;-91
2021/05/17 01:26:32;;;;;;;37.80;8.18;;;;;;;7.29;88.74;95061.31;4813493;29;20424;-91
2021/05/17 01:29:07;;;;;;;8.57;4.63;;;;;;;7.80;89.13;95132.38;4813569;29;20042;-91
2021/05/17 01:31:34;;;;;;;6.75;3.58;;;;;;;7.72;87.71;95128.56;4812786;29;20121;-91
2021/05/17 01:34:00;;;;;;;4.50;3.90;;;;;;;7.40;87.50;95097.84;4813453;29;20038;-90
2021/05/17 01:36:26;;;;;;;7.28;4.03;;;;;;;7.53;87.63;95115.25;4813410;29;20026;-89
2021/05/17 01:38:54;;;;;;;3.67;3.35;;;;;;;7.93;88.03;95130.13;4829324;29;20030;-89
2021/05/17 01:41:22;;;;;;;6.00;4.43;;;;;;;7.89;87.39;95129.59;4808514;29;20096;-90
2021/05/17 01:43:51;;;;;;;7.45;3.85;;;;;;;7.21;88.04;95054.81;4795119;29;20057;-90
2021/05/17 01:46:19;;;;;;;5.95;4.40;;;;;;;7.06;88.34;95057.53;4794802;29;20051;-91
2021/05/17 01:48:45;;;;;;;5.68;4.20;;;;;;;7.72;88.89;95137.41;4795155;29;20030;-91
2021/05/17 01:51:14;;;;;;;4.82;4.32;;;;;;;7.71;89.16;95135.94;4795099;29;20455;-91
2021/05/17 01:53:41;;;;;;;6.18;4.85;;;;;;;7.81;88.46;95140.03;4795215;29;20073;-91
2021/05/17 01:56:08;;;;;;;5.88;4.82;;;;;;;7.56;89.30;95094.66;4794910;29;20034;-91
2021/05/17 01:58:36;;;;;;;6.95;5.18;;;;;;;7.49;89.81;95079.56;4794789;29;20034;-92
2021/05/17 02:01:06;;;;;;;5.53;5.00;;;;;;;7.47;89.06;95083.97;4794829;29;20066;-91
2021/05/17 02:03:37;;;;;;;7.20;5.40;;;;;;;7.87;88.29;95154.38;4794892;29;20061;-92
2021/05/17 02:06:05;;;;;;;5.82;4.70;;;;;;;7.88;89.11;95147.78;4794783;29;20035;-91
2021/05/17 02:08:32;;;;;;;4.63;4.07;;;;;;;7.55;89.63;95085.06;4810752;29;20088;-93
2021/05/17 02:10:58;;;;;;;4.53;3.80;;;;;;;8.17;88.05;95145.47;4794359;29;20451;-92
2021/05/17 02:13:26;;;;;;;4.20;3.40;;;;;;;7.74;87.64;95078.25;4794425;29;20031;-92
2021/05/17 02:15:52;;;;;;;4.97;3.97;;;;;;;7.65;88.13;95070.25;4794623;29;20027;-91
2021/05/17 02:18:17;;;;;;;6.90;3.75;;;;;;;7.97;87.07;95127.97;4810302;29;20042;-91
2021/05/17 02:20:44;;;;;;;6.43;3.63;;;;;;;8.18;88.32;95142.28;4794421;29;20119;-93
2021/05/17 02:23:13;;;;;;;5.13;3.55;;;;;;;8.08;87.29;95105.75;4794519;29;20118;-90
2021/05/17 02:25:47;;;;;;;6.78;3.75;;;;;;;7.87;87.54;95100.31;4794438;29;20039;-92
2021/05/17 02:28:14;;;;;;;10.10;3.00;;;;;;;7.70;87.10;95082.34;4810443;29;20027;-91
2021/05/17 02:30:40;;;;;;;5.78;2.85;;;;;;;7.72;87.24;95088.75;4794391;29;20031;-91
2021/05/17 02:33:08;;;;;;;5.60;3.35;;;;;;;7.55;87.94;95071.56;4794412;29;20030;-91
2021/05/17 02:35:34;;;;;;;5.32;3.65;;;;;;;7.82;87.36;95100.97;4794156;29;20443;-91
2021/05/17 02:38:01;;;;;;;10.90;5.38;;;;;;;7.62;89.43;95054.97;4794326;29;20491;-92
2021/05/17 02:40:27;;;;;;;7.00;4.53;;;;;;;8.05;88.94;95087.78;4801952;29;20336;-92
2021/05/17 02:43:00;;;;;;;7.90;5.15;;;;;;;8.35;88.69;95135.16;4800257;29;20074;-90
2021/05/17 02:45:27;;;;;;;8.65;4.93;;;;;;;7.92;88.71;95079.97;4793796;29;20054;-90
2021/05/17 02:47:54;;;;;;;6.63;3.75;;;;;;;8.24;88.37;95104.50;4811150;29;20034;-90
2021/05/17 02:50:20;;;;;;;4.97;2.72;;;;;;;8.20;86.57;95093.88;4812101;29;20026;-89
2021/05/17 02:52:46;;;;;;;4.30;2.53;;;;;;;8.25;86.64;95090.50;4828292;29;20030;-90
2021/05/17 02:55:15;;;;;;;4.07;3.00;;;;;;;8.60;85.87;95138.44;4811691;29;20038;-90
2021/05/17 02:57:42;;;;;;;3.03;2.40;;;;;;;8.61;86.92;95134.53;4811051;29;20324;-90
2021/05/17 03:00:11;;;;;;;5.45;3.00;;;;;;;8.42;86.58;95142.16;4812000;29;20091;-89
2021/05/17 03:03:04;;;;;;;3.78;3.00;;;;;;;8.31;87.97;95153.56;4811951;29;20117;-89
2021/05/17 03:05:34;;;;;;;5.63;3.28;;;;;;;7.90;89.14;95092.47;4803169;29;20453;-91
2021/05/17 03:08:05;;;;;;;7.97;3.08;;;;;;;7.83;88.43;95093.63;4811954;29;20034;-90
2021/05/17 03:10:34;;;;;;;5.13;2.67;;;;;;;7.92;88.14;95103.56;4811866;29;20030;-90
2021/05/17 03:13:09;;;;;;;7.15;3.28;;;;;;;8.42;88.92;95155.69;4811984;29;20022;-90
2021/05/17 03:15:35;;;;;;;6.03;2.97;;;;;;;8.33;88.86;95107.09;4812017;29;20038;-90
2021/05/17 03:18:01;;;;;;;5.43;3.08;;;;;;;8.64;88.19;95137.03;4811290;29;20038;-91
2021/05/17 03:20:28;;;;;;;3.88;2.90;;;;;;;8.41;87.22;95081.13;4827976;29;20038;-90
2021/05/17 03:22:55;;;;;;;7.80;3.40;;;;;;;8.42;87.61;95082.66;4811766;29;20035;-90
2021/05/17 03:25:26;;;;;;;8.52;3.70;;;;;;;8.25;88.59;95081.63;4811811;29;20042;-90
2021/05/17 03:27:52;;;;;;;7.68;3.30;;;;;;;8.24;87.65;95091.72;4811588;29;20068;-90
2021/05/17 03:30:20;;;;;;;5.28;3.67;;;;;;;8.30;88.29;95103.34;4811786;29;20031;-90
2021/05/17 03:32:46;;;;;;;5.82;3.42;;;;;;;8.14;89.07;95088.38;4811655;29;20031;-90
2021/05/17 03:35:12;;;;;;;17.80;3.53;;;;;;;8.47;90.21;95140.72;4810490;29;20394;-91
2021/05/17 03:37:38;;;;;;;4.25;2.92;;;;;;;8.13;88.83;95103.13;4793598;29;20039;-91
2021/05/17 03:40:05;;;;;;;4.30;3.15;;;;;;;8.15;89.34;95108.09;4793470;29;20110;-91
2021/05/17 03:42:32;;;;;;;6.93;3.58;;;;;;;8.07;88.99;95094.19;4820255;29;20045;-91
2021/05/17 03:44:57;;;;;;;7.30;3.80;;;;;;;7.83;90.00;95055.78;4797884;29;20058;-91
2021/05/17 03:47:23;;;;;;;7.97;4.60;;;;;;;8.06;89.63;95079.19;4808763;29;20038;-90
2021/05/17 03:49:49;;;;;;;6.57;4.50;;;;;;;8.44;89.43;95134.31;4805356;29;20157;-93
2021/05/17 03:52:15;;;;;;;5.78;4.72;;;;;;;8.12;88.49;95076.56;4811710;29;20114;-92
2021/05/17 03:54:40;;;;;;;7.03;4.88;;;;;;;8.45;89.36;95124.22;4811557;29;20073;-92
2021/05/17 03:57:06;;;;;;;7.22;4.90;;;;;;;8.46;89.25;95120.31;4815455;29;20034;-91
2021/05/17 03:59:33;;;;;;;6.63;4.55;;;;;;;7.93;89.02;95045.56;4812504;29;20117;-92
2021/05/17 04:01:59;;;;;;;6.63;4.57;;;;;;;7.95;89.28;95056.66;4811947;29;20046;-93
2021/05/17 04:04:26;;;;;;;6.90;4.85;;;;;;;7.88;89.65;95044.28;4811419;29;20073;-92
2021/05/17 04:15:14;;;;;;;6.93;4.93;;;;;;;8.44;90.13;95115.38;4832075;29;20103;-91
2021/05/17 04:17:40;;;;;;;7.57;4.85;;;;;;;8.28;91.07;95073.34;4815204;29;20027;-92
2021/05/17 04:20:06;;;;;;;5.85;4.15;;;;;;;8.59;89.80;95134.25;4814939;29;20042;-91
2021/05/17 04:22:32;;;;;;;5.90;4.00;;;;;;;8.10;88.70;95070.91;4814801;29;20386;-91
2021/05/17 04:24:57;;;;;;;5.05;3.83;;;;;;;8.12;88.70;95077.31;4814495;29;20034;-91
2021/05/17 04:27:23;;;;;;;6.15;4.65;;;;;;;7.98;89.69;95053.00;4815008;29;20030;-91
2021/05/17 04:29:48;;;;;;;6.18;4.13;;;;;;;8.39;90.75;95102.50;4814465;29;20404;-92
2021/05/17 04:32:14;;;;;;;5.80;4.65;;;;;;;8.35;89.93;95091.13;4806211;29;20393;-90
2021/05/17 04:34:39;;;;;;;8.73;5.20;;;;;;;8.11;90.51;95054.19;4796283;29;20104;-90
2021/05/17 04:37:05;;;;;;;6.28;4.28;;;;;;;8.14;91.60;95037.00;4796387;29;20306;-92
2021/05/17 04:39:31;;;;;;;6.53;4.85;;;;;;;8.20;90.48;95036.31;4796355;29;20066;-91
2021/05/17 04:41:56;;;;;;;7.45;4.10;;;;;;;8.44;89.77;95068.63;4796327;29;20038;-93
2021/05/17 04:44:22;;;;;;;4.50;3.47;;;;;;;8.49;89.53;95070.66;4796600;29;20339;-93
2021/05/17 04:46:48;;;;;;;4.88;3.50;;;;;;;8.31;89.99;95047.28;4796073;29;20500;-91
2021/05/17 04:49:13;;;;;;;5.03;3.50;;;;;;;8.44;89.97;95060.50;4802598;29;20034;-91
2021/05/17 04:51:39;;;;;;;3.85;3.38;;;;;;;8.37;90.17;95046.19;4796568;29;20047;-93
2021/05/17 04:54:05;;;;;;;5.38;3.40;;;;;;;8.92;89.34;95123.06;4796099;29;20035;-92
2021/05/17 04:56:31;;;;;;;4.90;3.38;;;;;;;8.98;89.17;95123.13;4810953;29;20043;-90
2021/05/17 04:58:57;;;;;;;5.25;3.38;;;;;;;8.72;88.78;95087.91;4796086;29;20033;-90
2021/05/17 05:01:22;;;;;;;5.20;3.10;;;;;;;8.59;89.34;95059.22;4796162;29;20031;-90
2021/05/17 05:03:48;;;;;;;5.82;2.90;;;;;;;8.59;88.35;95064.63;4795891;29;20417;-91
2021/05/17 05:06:13;;;;;;;3.40;2.70;;;;;;;8.54;88.70;95054.50;4801904;29;20065;-90
2021/05/17 05:08:39;;;;;;;5.07;3.35;;;;;;;8.46;89.30;95042.56;4799641;29;20038;-90
2021/05/17 05:11:04;;;;;;;4.65;3.47;;;;;;;8.55;90.00;95047.84;4795784;29;20033;-91
2021/05/17 05:13:30;;;;;;;4.05;3.22;;;;;;;8.65;88.69;95056.56;4795587;29;20104;-90
2021/05/17 05:15:56;;;;;;;5.88;3.30;;;;;;;8.48;88.89;95048.28;4795768;29;20071;-90
2021/05/17 05:18:21;;;;;;;6.20;3.88;;;;;;;8.90;89.45;95106.56;4796244;29;20121;-90
2021/05/17 05:20:47;;;;;;;5.72;4.32;;;;;;;8.94;88.98;95109.78;4803793;29;20057;-89
2021/05/17 05:23:15;;;;;;;5.20;3.92;;;;;;;8.52;88.16;95043.41;4795506;29;20034;-91
2021/05/17 05:34:01;;;;;;;5.80;3.72;;;;;;;8.75;87.57;95073.41;4802042;29;20043;-91
2021/05/17 05:36:27;;;;;;;5.95;3.55;;;;;;;8.58;87.54;95060.44;4795252;29;20328;-90
2021/05/17 05:38:52;;;;;;;5.65;3.70;;;;;;;8.59;88.78;95015.19;4795477;29;20031;-92
2021/05/17 05:41:18;;;;;;;5.88;3.40;;;;;;;8.93;89.05;95052.19;4795241;29;20064;-89
2021/05/17 05:43:44;;;;;;;4.25;3.05;;;;;;;8.76;87.62;95031.59;4796995;29;20074;-90
2021/05/17 05:46:09;;;;;;;4.75;3.15;;;;;;;9.05;88.87;95061.16;4799502;29;20065;-94
2021/05/17 05:48:47;;;;;;;5.03;3.03;;;;;;;8.82;88.00;95046.66;4812972;29;20755;-92
2021/05/17 05:51:22;;;;;;;4.93;2.95;;;;;;;9.17;87.75;95078.28;4807624;29;20038;-92
2021/05/17 05:53:48;;;;;;;5.22;2.97;;;;;;;9.22;88.53;95090.41;4804629;29;20058;-90
2021/05/17 05:56:14;;;;;;;3.63;2.50;;;;;;;8.87;85.65;95023.56;4795026;29;20328;-91
2021/05/17 05:58:42;;;;;;;3.30;2.45;;;;;;;8.99;87.35;95033.28;4794682;29;20027;-91
2021/05/17 06:01:09;;;;;;;6.55;2.90;;;;;;;8.81;86.47;94993.75;4806427;29;20340;-89
2021/05/17 06:03:35;;;;;;;4.68;3.10;;;;;;;9.09;87.87;95015.66;4812738;29;20026;-91
2021/05/17 06:06:01;;;;;;;4.38;2.53;;;;;;;9.44;86.97;95066.94;4829876;29;20061;-91
2021/05/17 06:08:27;;;;;;;4.90;3.30;;;;;;;9.16;88.89;95020.66;4796718;29;20368;-92
2021/05/17 06:10:53;;;;;;;3.25;2.80;;;;;;;9.31;87.03;95038.72;4794626;29;20030;-91
2021/05/17 06:13:19;;;;;;;5.10;2.90;;;;;;;9.16;88.34;95014.47;4796154;29;20034;-91
2021/05/17 06:15:45;;;;;;;3.90;2.38;;;;;;;9.29;86.75;95022.97;4794338;29;20030;-92
2021/05/17 06:18:13;;;;;;;3.03;2.30;;;;;;;9.01;84.73;94986.78;4811767;29;20339;-90
2021/05/17 06:20:39;;;;;;;3.60;2.75;;;;;;;9.26;87.14;94991.41;4794554;29;20069;-90
2021/05/17 06:23:07;;;;;;;4.40;3.25;;;;;;;9.41;87.51;94993.97;4794658;29;20037;-91
2021/05/17 06:25:33;;;;;;;7.90;4.65;;;;;;;9.34;84.80;94991.72;4794498;29;20057;-91
2021/05/17 06:27:59;;;;;;;4.97;4.07;;;;;;;9.20;86.63;94968.94;4794599;29;20030;-91
2021/05/17 06:30:26;;;;;;;5.13;4.50;;;;;;;9.47;87.09;94996.72;4797881;29;20119;-91
2021/05/17 06:32:52;;;;;;;4.45;3.38;;;;;;;9.63;86.54;95012.38;4807230;29;20117;-92
2021/05/17 06:35:24;;;;;;;5.15;3.47;;;;;;;9.38;87.21;94967.88;4824208;29;20117;-91
2021/05/17 06:37:50;;;;;;;5.47;3.70;;;;;;;9.86;86.47;95051.22;4806169;29;20042;-90
2021/05/17 06:40:15;;;;;;;5.55;3.80;;;;;;;9.26;86.99;94966.28;4817690;29;20504;-90
2021/05/17 06:42:41;;;;;;;7.05;4.20;;;;;;;9.63;88.66;95006.94;4825225;29;20042;-91
2021/05/17 06:45:07;;;;;;;5.63;3.70;;;;;;;9.47;85.71;94975.03;4822545;29;20058;-91
2021/05/17 06:47:34;;;;;;;4.65;4.10;;;;;;;9.50;87.83;94993.06;4823418;29;20041;-91
2021/05/17 06:50:00;;;;;;;4.90;4.40;;;;;;;9.47;87.67;94967.66;4817913;29;20022;-91
2021/05/17 06:52:26;;;;;;;5.75;4.10;;;;;;;9.70;88.16;95001.09;4818766;29;20022;-92
2021/05/17 06:55:02;;;;;;;5.45;4.03;;;;;;;9.35;88.16;94955.28;4822324;29;20038;-90
2021/05/17 06:57:49;;;;;;;4.55;3.70;;;;;;;9.42;87.81;94974.53;4803981;29;20031;-91
2021/05/17 07:00:21;;;;;;;7.32;4.45;;;;;;;9.53;86.25;95000.22;4816332;29;20034;-90
2021/05/17 07:02:48;;;;;;;7.22;4.80;;;;;;;9.62;88.12;95008.91;4811991;29;20423;-91
2021/05/17 07:05:14;;;;;;;7.20;3.97;;;;;;;9.44;88.49;94998.44;4811938;29;20035;-90
2021/05/17 07:12:51;;;;;;;10.23;6.40;;;;;;;9.46;87.87;95009.53;4818497;29;20061;-90
2021/05/17 07:15:17;;;;;;;8.25;5.88;;;;;;;9.48;89.33;95017.19;4811608;29;20411;-90
2021/05/17 07:17:44;;;;;;;6.07;5.28;;;;;;;9.05;90.13;94949.38;4811871;29;20030;-89
2021/05/17 07:20:12;;;;;;;8.50;5.10;;;;;;;9.18;89.37;94977.56;4811892;29;20443;-89
2021/05/17 07:25:21;;;;;;;9.95;4.65;;;;;;;9.31;88.33;94979.88;4840964;29;20037;-90
2021/05/17 07:27:47;;;;;;;6.75;4.53;;;;;;;9.13;88.63;94953.16;4816274;29;20030;-90
2021/05/17 07:30:13;;;;;;;6.88;3.60;;;;;;;9.06;87.68;94948.91;4821720;29;20090;-91
2021/05/17 07:32:38;;;;;;;5.85;4.10;;;;;;;9.12;89.20;94955.13;4820742;29;20030;-90
2021/05/17 07:35:04;;;;;;;8.85;4.07;;;;;;;9.67;89.72;95029.16;4810990;29;20031;-90
2021/05/17 07:37:30;;;;;;;4.75;3.47;;;;;;;9.26;88.52;94958.91;4803533;29;20405;-91
2021/05/17 07:39:55;;;;;;;4.30;3.60;;;;;;;9.55;88.12;94995.06;4811249;29;20030;-92
2021/05/17 07:42:22;;;;;;;7.93;4.50;;;;;;;9.26;90.19;94948.06;4804913;29;20442;-91
2021/05/17 07:44:47;;;;;;;7.55;4.88;;;;;;;9.56;91.28;94981.03;4813215;29;20026;-93
2021/05/17 07:47:15;;;;;;;8.63;4.63;;;;;;;9.50;90.61;94964.00;4814766;29;20037;-92
2021/05/17 07:49:42;;;;;;;8.05;5.72;;;;;;;9.35;90.02;94950.59;4815189;29;20053;-93
2021/05/17 07:52:09;;;;;;;10.55;4.50;;;;;;;9.90;88.17;95025.34;4815239;29;20031;-92
2021/05/17 07:54:36;;;;;;;7.45;5.40;;;;;;;9.65;87.46;94985.53;4808714;29;20030;-93
2021/05/17 07:57:04;;;;;;;10.05;7.40;;;;;;;9.96;88.62;95020.72;4797034;29;20047;-93
2021/05/17 07:59:32;;;;;;;11.27;7.90;;;;;;;10.01;89.64;95024.66;4796884;29;20046;-91
2021/05/17 08:01:58;;;;;;;10.57;7.60;;;;;;;9.80;90.99;94979.91;4813940;29;20034;-91
2021/05/17 08:04:23;;;;;;;10.35;7.53;;;;;;;9.92;89.53;94997.75;4815360;29;20893;-91
2021/05/17 08:06:51;;;;;;;10.68;7.20;;;;;;;10.14;90.54;95030.41;4818371;29;20449;-91
2021/05/17 08:09:17;;;;;;;9.95;7.50;;;;;;;9.80;90.26;94977.97;4826600;29;20106;-92
2021/05/17 08:11:44;;;;;;;13.23;7.82;;;;;;;9.68;90.22;94952.75;4814685;29;20105;-91
2021/05/17 08:14:10;;;;;;;14.40;7.38;;;;;;;9.89;90.08;94966.91;4832690;29;20025;-91
2021/05/17 08:16:36;;;;;;;14.77;7.72;;;;;;;9.82;90.87;94951.13;4832074;29;20034;-92
2021/05/17 08:19:02;;;;;;;12.52;8.05;;;;;;;10.04;89.83;94985.00;4832171;29;20121;-92
2021/05/17 08:21:28;;;;;;;9.15;6.78;;;;;;;9.75;89.50;94953.53;4831210;29;20034;-91
2021/05/17 08:23:56;;;;;;;5.90;5.30;;;;;;;9.81;87.21;94957.78;4829951;29;20030;-92
2021/05/17 08:26:22;;;;;;;6.10;5.07;;;;;;;10.02;88.83;94985.47;4822905;29;20079;-93
2021/05/17 08:28:47;;;;;;;7.05;5.28;;;;;;;9.82;88.04;94948.41;4814539;29;20121;-91
2021/05/17 08:31:15;;;;;;;7.50;5.40;;;;;;;10.34;89.82;95024.13;4815936;29;20038;-93
2021/05/17 08:33:45;;;;;;;5.72;5.00;;;;;;;10.00;90.31;94957.34;4814377;29;20053;-93
2021/05/17 08:36:11;;;;;;;7.80;5.30;;;;;;;10.07;89.61;94951.47;4819064;29;20034;-93
2021/05/17 08:38:38;;;;;;;6.07;4.60;;;;;;;10.55;88.61;95029.38;4814419;29;20026;-92
2021/05/17 08:41:04;;;;;;;7.28;5.40;;;;;;;10.20;88.71;94981.59;4818793;29;20032;-93
2021/05/17 08:43:30;;;;;;;8.40;4.97;;;;;;;9.97;88.84;94932.69;4825921;29;20030;-93
2021/05/17 08:45:56;;;;;;;7.78;5.32;;;;;;;10.60;89.79;95018.53;4814631;29;20078;-91
2021/05/17 08:48:22;;;;;;;7.05;5.15;;;;;;;10.69;88.88;95025.72;4827399;29;20042;-93
2021/05/17 08:50:49;;;;;;;7.32;5.03;;;;;;;10.27;90.08;94954.03;4832210;29;20041;-91
2021/05/17 08:53:15;;;;;;;9.75;5.22;;;;;;;10.32;89.41;94958.72;4828897;29;20428;-92
2021/05/17 08:55:41;;;;;;;6.65;4.43;;;;;;;10.36;89.10;94955.78;4813421;29;20030;-91
2021/05/17 08:58:08;;;;;;;7.78;4.70;;;;;;;10.20;88.70;94933.50;4814450;29;20034;-92
2021/05/17 09:00:34;;;;;;;6.25;4.28;;;;;;;10.66;87.13;95007.69;4820623;29;20090;-93
2021/05/17 09:03:05;;;;;;;6.63;4.50;;;;;;;10.35;88.17;94946.16;4821843;29;20030;-92
2021/05/17 09:05:33;;;;;;;7.72;4.53;;;;;;;10.62;87.69;94986.22;4830989;29;20385;-92
2021/05/17 09:08:03;;;;;;;9.27;5.40;;;;;;;10.41;89.18;94953.09;4824420;29;20091;-93
2021/05/17 09:10:34;;;;;;;9.60;5.13;;;;;;;10.50;88.30;94965.69;4817390;29;20040;-92
2021/05/17 09:13:17;;;;;;;9.75;4.85;;;;;;;10.93;90.71;94990.72;4830052;29;20446;-93
2021/05/17 09:15:46;;;;;;;6.03;4.35;;;;;;;10.94;87.87;94977.88;4818848;29;20037;-92
2021/05/17 09:18:18;;;;;;;6.50;4.68;;;;;;;11.10;88.59;94993.44;4813656;29;20030;-93
2021/05/17 09:20:49;;;;;;;7.75;4.60;;;;;;;10.61;88.35;94918.84;4813714;29;20038;-92
2021/05/17 09:23:14;;;;;;;6.95;5.25;;;;;;;11.21;89.43;94993.44;4813250;29;20088;-91
2021/05/17 09:26:07;;;;;;;7.68;5.57;;;;;;;10.85;88.73;94942.78;4813686;29;20038;-93
2021/05/17 09:28:51;;;;;;;9.73;6.65;;;;;;;11.28;88.86;94992.94;4820351;29;20061;-92
2021/05/17 09:31:19;;;;;;;9.27;6.10;;;;;;;10.81;87.95;94915.13;4831852;29;20034;-93
2021/05/17 09:33:51;;;;;;;6.30;4.63;;;;;;;11.27;86.87;94988.00;4831660;29;20055;-93
2021/05/17 09:36:39;;;;;;;6.57;4.78;;;;;;;10.98;87.58;94951.22;4831696;29;20087;-94
2021/05/17 09:39:10;;;;;;;6.35;4.32;;;;;;;11.32;87.59;94986.53;4831675;29;20044;-93
2021/05/17 09:41:47;;;;;;;7.78;5.93;;;;;;;11.30;87.70;94978.88;4831555;29;20030;-95
2021/05/17 09:44:15;;;;;;;6.13;4.80;;;;;;;11.21;84.79;94958.13;4831534;29;20331;-95
2021/05/17 09:47:05;;;;;;;7.15;5.47;;;;;;;11.43;87.39;94981.09;4831281;29;20511;-93
2021/05/17 09:49:35;;;;;;;6.90;5.50;;;;;;;11.39;86.18;94964.28;4831425;29;20041;-93
2021/05/17 09:52:07;;;;;;;9.48;6.47;;;;;;;11.54;89.62;94962.03;4831451;29;20030;-92
2021/05/17 09:54:59;;;;;;;7.20;6.50;;;;;;;11.57;89.61;94950.19;4831623;29;20049;-95
2021/05/17 09:57:31;;;;;;;8.90;7.13;;;;;;;11.55;90.55;94934.34;4831299;29;20034;-94
2021/05/17 10:00:04;;;;;;;7.28;5.90;;;;;;;11.64;87.76;94960.53;4831337;29;20071;-94
2021/05/17 10:02:37;;;;;;;5.90;5.28;;;;;;;11.39;88.27;94918.06;4830974;29;20087;-94
2021/05/17 10:05:38;;;;;;;7.80;5.88;;;;;;;11.63;88.93;94931.13;4831276;29;20064;-93
2021/05/17 10:08:08;;;;;;;9.50;5.53;;;;;;;11.43;87.60;94904.97;4740681;30;20074;-95
2021/05/17 10:10:34;;;;;;;6.90;5.40;;;;;;;11.46;87.77;94898.53;4814521;29;20041;-94
2021/05/17 10:13:01;;;;;;;6.13;5.50;;;;;;;11.70;87.18;94906.13;4831157;29;20026;-95
2021/05/17 10:15:30;;;;;;;6.47;5.82;;;;;;;12.06;87.01;94943.13;4831350;29;20036;-95
2021/05/17 10:17:58;;;;;;;8.68;5.68;;;;;;;12.18;87.07;94940.38;4831112;29;20030;-94
2021/05/17 10:20:25;;;;;;;9.68;5.57;;;;;;;11.67;88.05;94861.66;4816163;29;20045;-93
2021/05/17 10:22:54;;;;;;;8.05;5.57;;;;;;;12.03;88.17;94897.88;4830892;29;20045;-93
2021/05/17 10:25:33;;;;;;;7.57;4.90;;;;;;;12.40;86.73;94931.34;4831015;29;20072;-96
2021/05/17 10:28:06;;;;;;;6.45;4.68;;;;;;;12.00;88.24;94860.06;4831002;29;20431;-94
2021/05/17 10:30:33;;;;;;;5.18;4.25;;;;;;;12.28;85.51;94868.06;4830917;29;20033;-94
2021/05/17 10:33:03;;;;;;;7.10;4.07;;;;;;;12.64;85.28;94906.22;4830889;29;20362;-93
2021/05/17 10:35:32;;;;;;;;;;;;;;;12.79;85.74;94912.78;4831257;29;20117;-94
2021/05/17 10:41:10;;;;;;;4.15;3.65;;;;;;;12.78;85.42;94910.56;4847031;29;20046;-92
2021/05/17 10:44:07;;;;;;;5.20;4.00;;;;;;;12.79;85.63;94915.53;4830577;29;20040;-91
2021/05/17 10:46:48;;;;;;;4.82;3.40;;;;;;;12.79;85.63;94915.53;4830499;29;20397;-92
2021/05/17 10:49:16;;;;;;;6.35;3.75;;;;;;;12.79;84.51;94918.25;4830644;29;20040;-93
2021/05/17 10:51:42;;;;;;;5.90;3.65;;;;;;;12.54;85.36;94865.66;4830515;29;20324;-93
2021/05/17 10:54:35;;;;;;;4.93;3.60;;;;;;;12.53;85.26;94866.91;4833101;29;20026;-94
2021/05/17 10:57:05;;;;;;;6.20;3.80;;;;;;;12.40;84.73;94834.06;4830412;29;20057;-93
2021/05/17 11:02:28;;;;;;;5.93;3.70;;;;;;;-145.61;100.00;68426.72;4810248;29;20057;-92
2021/05/17 11:05:08;;;;;;;6.32;4.68;;;;;;;-145.61;100.00;68426.72;4793990;29;20439;-92
2021/05/17 11:07:54;;;;;;;5.30;3.20;;;;;;;-145.61;100.00;68426.72;4794067;29;20071;-92
2021/05/17 11:10:33;;;;;;;4.78;2.80;;;;;;;-145.61;100.00;68426.72;4801505;29;20416;-91
2021/05/17 11:13:00;;;;;;;4.10;2.75;;;;;;;-145.61;100.00;68426.72;4822687;29;20026;-90
2021/05/17 11:15:38;;;;;;;7.82;5.57;;;;;;;-145.61;100.00;68426.72;4816316;29;20422;-92
2021/05/17 11:18:06;;;;;;;4.60;3.38;;;;;;;-145.61;100.00;68426.72;4830026;29;20411;-91
2021/05/17 11:20:41;;;;;;;4.43;3.08;;;;;;;-145.61;100.00;68426.72;4830016;29;20074;-90
2021/05/17 11:23:22;;;;;;;5.00;2.30;;;;;;;-145.61;100.00;68426.72;4830332;29;20029;-91
2021/05/17 11:25:48;;;;;;;;;;;;;;;-145.61;100.00;68426.72;4818076;29;20103;-93
2021/05/17 11:28:15;;;;;;;4.43;2.70;;;;;;;-145.61;100.00;68426.72;4811951;29;19955;-91
2021/05/17 11:30:42;;;;;;;4.50;2.17;;;;;;;-145.61;100.00;68426.72;4818493;29;20034;-91
2021/05/17 11:33:19;;;;;;;3.65;2.20;;;;;;;-145.61;100.00;68426.72;4814130;29;20030;-91
2021/05/17 11:36:10;;;;;;;4.57;2.05;;;;;;;-145.61;100.00;68426.72;4806972;29;20126;-89
2021/05/17 11:38:35;;;;;;;2.95;2.10;;;;;;;-145.61;100.00;68426.72;4817569;29;20130;-91
2021/05/17 11:41:19;;;;;;;3.67;2.17;;;;;;;-145.61;100.00;68426.72;4828344;29;20069;-90
2021/05/17 11:43:44;;;;;;;3.63;2.13;;;;;;;-145.61;100.00;68426.72;4821025;29;20169;-91
2021/05/17 11:46:16;;;;;;;3.58;1.88;;;;;;;-145.61;100.00;68426.72;4825492;29;20151;-91
2021/05/17 11:48:44;;;;;;;2.95;2.13;;;;;;;-145.61;100.00;68426.72;4826173;29;20388;-91
2021/05/17 11:51:09;;;;;;;3.35;1.73;;;;;;;-145.61;100.00;68426.72;4842857;29;20405;-90
2021/05/17 11:53:35;;;;;;;3.63;2.00;;;;;;;-145.61;100.00;68426.72;4816111;29;20018;-91
2021/05/17 11:56:04;;;;;;;2.83;1.70;;;;;;;-145.61;100.00;68426.72;4821035;29;20034;-90
2021/05/17 11:58:29;;;;;;;4.72;1.90;;;;;;;-145.61;100.00;68426.72;4813955;29;20038;-90
2021/05/17 12:01:14;;;;;;;2.97;1.90;;;;;;;-145.61;100.00;68426.72;4798619;29;20033;-90
2021/05/17 12:03:41;;;;;;;2.83;1.90;;;;;;;-145.61;100.00;68426.72;4800823;29;20324;-90
2021/05/17 12:06:06;;;;;;;2.90;1.73;;;;;;;-145.61;100.00;68426.72;4812993;29;20087;-90
2021/05/17 12:08:33;;;;;;;6.45;2.92;;;;;;;-145.61;100.00;68426.72;4814556;29;20374;-92
2021/05/17 12:10:59;;;;;;;2.85;2.45;;;;;;;-145.61;100.00;68426.72;4810198;29;20062;-91
2021/05/17 12:13:24;;;;;;;4.07;2.28;;;;;;;-145.61;100.00;68426.72;4816400;29;20319;-91